sensor_id;sensor_type;location;lat;lon;timestamp;temperature;humidity
32348;DHT22;18821;44.800;10.326;2023-12-20T00:00:09;5.20;99.90
32348;DHT22;18821;44.800;10.326;2023-12-20T00:02:38;5.10;99.90
32348;DHT22;18821;44.800;10.326;2023-12-20T00:05:04;5.10;99.90
32348;DHT22;18821;44.800;10.326;2023-12-20T00:07:33;5.10;99.90
32348;DHT22;18821;44.800;10.326;2023-12-20T00:09:59;5.10;99.90
32348;DHT22;18821;44.800;10.326;2023-12-20T00:12:25;5.10;99.90
32348;DHT22;18821;44.800;10.326;2023-12-20T00:14:51;5.00;99.90
32348;DHT22;18821;44.800;10.326;2023-12-20T00:17:17;5.00;99.90
32348;DHT22;18821;44.800;10.326;2023-12-20T00:19:43;4.90;99.90
32348;DHT22;18821;44.800;10.326;2023-12-20T00:22:09;4.90;99.90
32348;DHT22;18821;44.800;10.326;2023-12-20T00:24:35;4.90;99.90
32348;DHT22;18821;44.800;10.326;2023-12-20T00:27:01;4.90;99.90
32348;DHT22;18821;44.800;10.326;2023-12-20T00:29:26;4.80;99.90
32348;DHT22;18821;44.800;10.326;2023-12-20T00:31:52;4.70;99.90
32348;DHT22;18821;44.800;10.326;2023-12-20T00:34:18;4.60;99.90
32348;DHT22;18821;44.800;10.326;2023-12-20T00:36:44;4.60;99.90
32348;DHT22;18821;44.800;10.326;2023-12-20T00:39:10;4.60;99.90
32348;DHT22;18821;44.800;10.326;2023-12-20T00:41:36;4.60;99.90
32348;DHT22;18821;44.800;10.326;2023-12-20T00:44:03;4.60;99.90
32348;DHT22;18821;44.800;10.326;2023-12-20T00:46:28;4.70;99.90
32348;DHT22;18821;44.800;10.326;2023-12-20T00:48:54;4.70;99.90
32348;DHT22;18821;44.800;10.326;2023-12-20T00:51:20;4.70;99.90
32348;DHT22;18821;44.800;10.326;2023-12-20T00:53:49;4.70;99.90
32348;DHT22;18821;44.800;10.326;2023-12-20T00:56:15;4.80;99.90
32348;DHT22;18821;44.800;10.326;2023-12-20T00:58:41;4.80;99.90
32348;DHT22;18821;44.800;10.326;2023-12-20T01:01:07;4.80;99.90
32348;DHT22;18821;44.800;10.326;2023-12-20T01:03:36;4.80;99.90
32348;DHT22;18821;44.800;10.326;2023-12-20T01:06:02;4.80;99.90
32348;DHT22;18821;44.800;10.326;2023-12-20T01:08:28;4.80;99.90
32348;DHT22;18821;44.800;10.326;2023-12-20T01:10:54;4.80;99.90
32348;DHT22;18821;44.800;10.326;2023-12-20T01:13:19;4.70;99.90
32348;DHT22;18821;44.800;10.326;2023-12-20T01:15:45;4.70;99.90
32348;DHT22;18821;44.800;10.326;2023-12-20T01:18:14;4.70;99.90
32348;DHT22;18821;44.800;10.326;2023-12-20T01:20:40;4.70;99.90
32348;DHT22;18821;44.800;10.326;2023-12-20T01:23:06;4.70;99.90
32348;DHT22;18821;44.800;10.326;2023-12-20T01:25:32;4.70;99.90
32348;DHT22;18821;44.800;10.326;2023-12-20T01:27:58;4.70;99.90
32348;DHT22;18821;44.800;10.326;2023-12-20T01:30:24;4.70;99.90
32348;DHT22;18821;44.800;10.326;2023-12-20T01:32:50;4.70;99.90
32348;DHT22;18821;44.800;10.326;2023-12-20T01:35:16;4.70;99.90
32348;DHT22;18821;44.800;10.326;2023-12-20T01:37:42;4.80;99.90
32348;DHT22;18821;44.800;10.326;2023-12-20T01:40:08;4.80;99.90
32348;DHT22;18821;44.800;10.326;2023-12-20T01:42:34;4.80;99.90
32348;DHT22;18821;44.800;10.326;2023-12-20T01:45:00;4.80;99.90
32348;DHT22;18821;44.800;10.326;2023-12-20T01:47:26;4.80;99.90
32348;DHT22;18821;44.800;10.326;2023-12-20T01:49:52;4.80;99.90
32348;DHT22;18821;44.800;10.326;2023-12-20T01:52:20;4.70;99.90
32348;DHT22;18821;44.800;10.326;2023-12-20T01:54:47;4.70;99.90
32348;DHT22;18821;44.800;10.326;2023-12-20T01:57:13;4.60;99.90
32348;DHT22;18821;44.800;10.326;2023-12-20T01:59:40;4.60;99.90
32348;DHT22;18821;44.800;10.326;2023-12-20T02:02:07;4.50;99.90
32348;DHT22;18821;44.800;10.326;2023-12-20T02:04:34;4.50;99.90
32348;DHT22;18821;44.800;10.326;2023-12-20T02:07:00;4.50;99.90
32348;DHT22;18821;44.800;10.326;2023-12-20T02:09:27;4.40;99.90
32348;DHT22;18821;44.800;10.326;2023-12-20T02:11:54;4.30;99.90
32348;DHT22;18821;44.800;10.326;2023-12-20T02:14:20;4.30;99.90
32348;DHT22;18821;44.800;10.326;2023-12-20T02:16:46;4.30;99.90
32348;DHT22;18821;44.800;10.326;2023-12-20T02:19:15;4.30;99.90
32348;DHT22;18821;44.800;10.326;2023-12-20T02:21:43;4.30;99.90
32348;DHT22;18821;44.800;10.326;2023-12-20T02:24:09;4.30;99.90
32348;DHT22;18821;44.800;10.326;2023-12-20T02:26:35;4.30;99.90
32348;DHT22;18821;44.800;10.326;2023-12-20T02:29:02;4.30;99.90
32348;DHT22;18821;44.800;10.326;2023-12-20T02:31:28;4.20;99.90
32348;DHT22;18821;44.800;10.326;2023-12-20T02:33:54;4.20;99.90
32348;DHT22;18821;44.800;10.326;2023-12-20T02:36:20;4.20;99.90
32348;DHT22;18821;44.800;10.326;2023-12-20T02:38:45;4.20;99.90
32348;DHT22;18821;44.800;10.326;2023-12-20T02:41:12;4.20;99.90
32348;DHT22;18821;44.800;10.326;2023-12-20T02:43:38;4.30;99.90
32348;DHT22;18821;44.800;10.326;2023-12-20T02:46:04;4.30;99.90
32348;DHT22;18821;44.800;10.326;2023-12-20T02:48:30;4.30;99.90
32348;DHT22;18821;44.800;10.326;2023-12-20T02:50:56;4.30;99.90
32348;DHT22;18821;44.800;10.326;2023-12-20T02:53:21;4.40;99.90
32348;DHT22;18821;44.800;10.326;2023-12-20T02:55:47;4.40;99.90
32348;DHT22;18821;44.800;10.326;2023-12-20T02:58:13;4.40;99.90
32348;DHT22;18821;44.800;10.326;2023-12-20T03:00:39;4.40;99.90
32348;DHT22;18821;44.800;10.326;2023-12-20T03:03:05;4.40;99.90
32348;DHT22;18821;44.800;10.326;2023-12-20T03:05:31;4.40;99.90
32348;DHT22;18821;44.800;10.326;2023-12-20T03:07:58;4.40;99.90
32348;DHT22;18821;44.800;10.326;2023-12-20T03:10:24;4.40;99.90
32348;DHT22;18821;44.800;10.326;2023-12-20T03:12:50;4.30;99.90
32348;DHT22;18821;44.800;10.326;2023-12-20T03:15:16;4.30;99.90
32348;DHT22;18821;44.800;10.326;2023-12-20T03:17:42;4.30;99.90
32348;DHT22;18821;44.800;10.326;2023-12-20T03:20:08;4.30;99.90
32348;DHT22;18821;44.800;10.326;2023-12-20T03:22:34;4.30;99.90
32348;DHT22;18821;44.800;10.326;2023-12-20T03:25:00;4.20;99.90
32348;DHT22;18821;44.800;10.326;2023-12-20T03:27:26;4.20;99.90
32348;DHT22;18821;44.800;10.326;2023-12-20T03:29:52;4.10;99.90
32348;DHT22;18821;44.800;10.326;2023-12-20T03:32:18;4.20;99.90
32348;DHT22;18821;44.800;10.326;2023-12-20T03:34:44;4.10;99.90
32348;DHT22;18821;44.800;10.326;2023-12-20T03:37:10;4.10;99.90
32348;DHT22;18821;44.800;10.326;2023-12-20T03:39:36;4.10;99.90
32348;DHT22;18821;44.800;10.326;2023-12-20T03:42:02;4.10;99.90
32348;DHT22;18821;44.800;10.326;2023-12-20T03:44:28;4.00;99.90
32348;DHT22;18821;44.800;10.326;2023-12-20T03:46:54;4.00;99.90
32348;DHT22;18821;44.800;10.326;2023-12-20T03:49:20;3.80;99.90
32348;DHT22;18821;44.800;10.326;2023-12-20T03:51:46;3.80;99.90
32348;DHT22;18821;44.800;10.326;2023-12-20T03:54:12;3.80;99.90
32348;DHT22;18821;44.800;10.326;2023-12-20T03:56:38;3.80;99.90
32348;DHT22;18821;44.800;10.326;2023-12-20T03:59:04;3.80;99.90
32348;DHT22;18821;44.800;10.326;2023-12-20T04:01:29;3.70;99.90
32348;DHT22;18821;44.800;10.326;2023-12-20T04:03:55;3.70;99.90
32348;DHT22;18821;44.800;10.326;2023-12-20T04:06:21;3.80;99.90
32348;DHT22;18821;44.800;10.326;2023-12-20T04:08:47;3.80;99.90
32348;DHT22;18821;44.800;10.326;2023-12-20T04:11:13;3.90;99.90
32348;DHT22;18821;44.800;10.326;2023-12-20T04:13:39;3.90;99.90
32348;DHT22;18821;44.800;10.326;2023-12-20T04:16:05;3.90;99.90
32348;DHT22;18821;44.800;10.326;2023-12-20T04:18:31;4.00;99.90
32348;DHT22;18821;44.800;10.326;2023-12-20T04:20:57;4.10;99.90
32348;DHT22;18821;44.800;10.326;2023-12-20T04:23:23;4.00;99.90
32348;DHT22;18821;44.800;10.326;2023-12-20T04:25:49;4.10;99.90
32348;DHT22;18821;44.800;10.326;2023-12-20T04:28:15;4.10;99.90
32348;DHT22;18821;44.800;10.326;2023-12-20T04:30:42;4.10;99.90
32348;DHT22;18821;44.800;10.326;2023-12-20T04:33:07;4.10;99.90
32348;DHT22;18821;44.800;10.326;2023-12-20T04:35:33;4.10;99.90
32348;DHT22;18821;44.800;10.326;2023-12-20T04:37:59;4.10;99.90
32348;DHT22;18821;44.800;10.326;2023-12-20T04:40:25;4.10;99.90
32348;DHT22;18821;44.800;10.326;2023-12-20T04:42:51;4.00;99.90
32348;DHT22;18821;44.800;10.326;2023-12-20T04:45:17;4.00;99.90
32348;DHT22;18821;44.800;10.326;2023-12-20T04:47:45;3.90;99.90
32348;DHT22;18821;44.800;10.326;2023-12-20T04:50:12;3.90;99.90
32348;DHT22;18821;44.800;10.326;2023-12-20T04:52:39;3.80;99.90
32348;DHT22;18821;44.800;10.326;2023-12-20T04:55:05;3.80;99.90
32348;DHT22;18821;44.800;10.326;2023-12-20T04:57:31;3.90;99.90
32348;DHT22;18821;44.800;10.326;2023-12-20T04:59:57;3.90;99.90
32348;DHT22;18821;44.800;10.326;2023-12-20T05:02:23;3.90;99.90
32348;DHT22;18821;44.800;10.326;2023-12-20T05:04:49;3.90;99.90
32348;DHT22;18821;44.800;10.326;2023-12-20T05:07:15;3.90;99.90
32348;DHT22;18821;44.800;10.326;2023-12-20T05:09:41;3.80;99.90
32348;DHT22;18821;44.800;10.326;2023-12-20T05:12:07;4.00;99.90
32348;DHT22;18821;44.800;10.326;2023-12-20T05:14:33;4.20;99.90
32348;DHT22;18821;44.800;10.326;2023-12-20T05:16:59;4.20;99.90
32348;DHT22;18821;44.800;10.326;2023-12-20T05:19:25;4.20;99.90
32348;DHT22;18821;44.800;10.326;2023-12-20T05:21:52;4.20;99.90
32348;DHT22;18821;44.800;10.326;2023-12-20T05:24:18;4.20;99.90
32348;DHT22;18821;44.800;10.326;2023-12-20T05:26:44;4.20;99.90
32348;DHT22;18821;44.800;10.326;2023-12-20T05:29:09;4.20;99.90
32348;DHT22;18821;44.800;10.326;2023-12-20T05:31:35;4.20;99.90
32348;DHT22;18821;44.800;10.326;2023-12-20T05:34:01;4.30;99.90
32348;DHT22;18821;44.800;10.326;2023-12-20T05:36:27;4.20;99.90
32348;DHT22;18821;44.800;10.326;2023-12-20T05:38:54;4.20;99.90
32348;DHT22;18821;44.800;10.326;2023-12-20T05:41:20;4.20;99.90
32348;DHT22;18821;44.800;10.326;2023-12-20T05:43:47;4.20;99.90
32348;DHT22;18821;44.800;10.326;2023-12-20T05:46:13;4.10;99.90
32348;DHT22;18821;44.800;10.326;2023-12-20T05:48:39;4.10;99.90
32348;DHT22;18821;44.800;10.326;2023-12-20T05:51:05;4.10;99.90
32348;DHT22;18821;44.800;10.326;2023-12-20T05:53:31;4.10;99.90
32348;DHT22;18821;44.800;10.326;2023-12-20T05:55:57;4.10;99.90
32348;DHT22;18821;44.800;10.326;2023-12-20T05:58:22;4.10;99.90
32348;DHT22;18821;44.800;10.326;2023-12-20T06:00:48;4.10;99.90
32348;DHT22;18821;44.800;10.326;2023-12-20T06:03:14;4.10;99.90
32348;DHT22;18821;44.800;10.326;2023-12-20T06:05:41;4.10;99.90
32348;DHT22;18821;44.800;10.326;2023-12-20T06:08:07;4.10;99.90
32348;DHT22;18821;44.800;10.326;2023-12-20T06:10:33;4.20;99.90
32348;DHT22;18821;44.800;10.326;2023-12-20T06:12:58;4.20;99.90
32348;DHT22;18821;44.800;10.326;2023-12-20T06:15:26;4.30;99.90
32348;DHT22;18821;44.800;10.326;2023-12-20T06:17:52;4.30;99.90
32348;DHT22;18821;44.800;10.326;2023-12-20T06:20:18;4.40;99.90
32348;DHT22;18821;44.800;10.326;2023-12-20T06:22:44;4.40;99.90
32348;DHT22;18821;44.800;10.326;2023-12-20T06:25:10;4.40;99.90
32348;DHT22;18821;44.800;10.326;2023-12-20T06:27:36;4.40;99.90
32348;DHT22;18821;44.800;10.326;2023-12-20T06:30:01;4.40;99.90
32348;DHT22;18821;44.800;10.326;2023-12-20T06:32:28;4.50;99.90
32348;DHT22;18821;44.800;10.326;2023-12-20T06:34:55;4.60;99.90
32348;DHT22;18821;44.800;10.326;2023-12-20T06:37:21;4.70;99.90
32348;DHT22;18821;44.800;10.326;2023-12-20T06:39:47;4.70;99.90
32348;DHT22;18821;44.800;10.326;2023-12-20T06:42:13;4.70;99.90
32348;DHT22;18821;44.800;10.326;2023-12-20T06:44:39;4.70;99.90
32348;DHT22;18821;44.800;10.326;2023-12-20T06:47:05;4.70;99.90
32348;DHT22;18821;44.800;10.326;2023-12-20T06:49:31;4.70;99.90
32348;DHT22;18821;44.800;10.326;2023-12-20T06:51:57;4.80;99.90
32348;DHT22;18821;44.800;10.326;2023-12-20T06:54:26;4.80;99.90
32348;DHT22;18821;44.800;10.326;2023-12-20T06:56:52;4.80;99.90
32348;DHT22;18821;44.800;10.326;2023-12-20T06:59:18;4.80;99.90
32348;DHT22;18821;44.800;10.326;2023-12-20T07:01:48;4.80;99.90
32348;DHT22;18821;44.800;10.326;2023-12-20T07:04:14;4.90;99.90
32348;DHT22;18821;44.800;10.326;2023-12-20T07:06:40;4.90;99.90
32348;DHT22;18821;44.800;10.326;2023-12-20T07:09:06;4.90;99.90
32348;DHT22;18821;44.800;10.326;2023-12-20T07:11:32;4.90;99.90
32348;DHT22;18821;44.800;10.326;2023-12-20T07:13:57;5.00;99.90
32348;DHT22;18821;44.800;10.326;2023-12-20T07:16:23;5.00;99.90
32348;DHT22;18821;44.800;10.326;2023-12-20T07:18:50;5.10;99.90
32348;DHT22;18821;44.800;10.326;2023-12-20T07:21:18;5.10;99.90
32348;DHT22;18821;44.800;10.326;2023-12-20T07:23:44;5.20;99.90
32348;DHT22;18821;44.800;10.326;2023-12-20T07:26:10;5.30;99.90
32348;DHT22;18821;44.800;10.326;2023-12-20T07:28:36;5.40;99.90
32348;DHT22;18821;44.800;10.326;2023-12-20T07:31:03;5.30;99.90
32348;DHT22;18821;44.800;10.326;2023-12-20T07:33:29;5.30;99.90
32348;DHT22;18821;44.800;10.326;2023-12-20T07:35:54;5.40;99.90
32348;DHT22;18821;44.800;10.326;2023-12-20T07:38:20;5.40;99.90
32348;DHT22;18821;44.800;10.326;2023-12-20T07:40:46;5.40;99.90
32348;DHT22;18821;44.800;10.326;2023-12-20T07:43:12;5.40;99.90
32348;DHT22;18821;44.800;10.326;2023-12-20T07:45:38;5.40;99.90
32348;DHT22;18821;44.800;10.326;2023-12-20T07:48:06;5.30;99.90
32348;DHT22;18821;44.800;10.326;2023-12-20T07:50:32;5.40;99.90
32348;DHT22;18821;44.800;10.326;2023-12-20T07:52:58;5.40;99.90
32348;DHT22;18821;44.800;10.326;2023-12-20T07:55:27;5.50;99.90
32348;DHT22;18821;44.800;10.326;2023-12-20T07:57:53;5.50;99.90
32348;DHT22;18821;44.800;10.326;2023-12-20T08:00:19;5.60;99.90
32348;DHT22;18821;44.800;10.326;2023-12-20T08:02:45;5.70;99.90
32348;DHT22;18821;44.800;10.326;2023-12-20T08:05:10;5.80;99.90
32348;DHT22;18821;44.800;10.326;2023-12-20T08:07:36;5.80;99.90
32348;DHT22;18821;44.800;10.326;2023-12-20T08:10:04;5.80;99.90
32348;DHT22;18821;44.800;10.326;2023-12-20T08:12:31;5.90;99.90
32348;DHT22;18821;44.800;10.326;2023-12-20T08:14:56;5.90;99.90
32348;DHT22;18821;44.800;10.326;2023-12-20T08:17:24;6.00;99.90
32348;DHT22;18821;44.800;10.326;2023-12-20T08:19:51;6.10;99.90
32348;DHT22;18821;44.800;10.326;2023-12-20T08:22:17;6.10;99.90
32348;DHT22;18821;44.800;10.326;2023-12-20T08:24:42;6.20;99.90
32348;DHT22;18821;44.800;10.326;2023-12-20T08:27:08;6.20;99.90
32348;DHT22;18821;44.800;10.326;2023-12-20T08:29:40;6.30;99.90
32348;DHT22;18821;44.800;10.326;2023-12-20T08:32:17;6.30;99.90
32348;DHT22;18821;44.800;10.326;2023-12-20T08:34:43;6.30;99.90
32348;DHT22;18821;44.800;10.326;2023-12-20T08:37:09;6.40;99.90
32348;DHT22;18821;44.800;10.326;2023-12-20T08:39:37;6.50;99.90
32348;DHT22;18821;44.800;10.326;2023-12-20T08:42:06;6.50;99.90
32348;DHT22;18821;44.800;10.326;2023-12-20T08:44:32;6.50;99.90
32348;DHT22;18821;44.800;10.326;2023-12-20T08:46:58;6.30;99.90
32348;DHT22;18821;44.800;10.326;2023-12-20T08:49:24;6.10;99.90
32348;DHT22;18821;44.800;10.326;2023-12-20T08:51:51;6.00;99.90
32348;DHT22;18821;44.800;10.326;2023-12-20T08:54:17;5.90;99.90
32348;DHT22;18821;44.800;10.326;2023-12-20T08:56:43;6.00;99.90
32348;DHT22;18821;44.800;10.326;2023-12-20T08:59:09;6.10;99.90
32348;DHT22;18821;44.800;10.326;2023-12-20T09:01:35;6.20;99.90
32348;DHT22;18821;44.800;10.326;2023-12-20T09:04:01;6.20;99.90
32348;DHT22;18821;44.800;10.326;2023-12-20T09:06:27;6.30;99.90
32348;DHT22;18821;44.800;10.326;2023-12-20T09:08:52;6.40;99.90
32348;DHT22;18821;44.800;10.326;2023-12-20T09:11:18;6.50;99.90
32348;DHT22;18821;44.800;10.326;2023-12-20T09:13:44;6.60;99.90
32348;DHT22;18821;44.800;10.326;2023-12-20T09:16:11;6.70;99.90
32348;DHT22;18821;44.800;10.326;2023-12-20T09:18:38;6.80;99.90
32348;DHT22;18821;44.800;10.326;2023-12-20T09:21:17;6.90;99.90
32348;DHT22;18821;44.800;10.326;2023-12-20T09:23:43;7.00;99.90
32348;DHT22;18821;44.800;10.326;2023-12-20T09:26:10;7.00;99.90
32348;DHT22;18821;44.800;10.326;2023-12-20T09:28:36;7.10;99.90
32348;DHT22;18821;44.800;10.326;2023-12-20T09:31:04;7.20;99.90
32348;DHT22;18821;44.800;10.326;2023-12-20T09:33:30;7.20;99.90
32348;DHT22;18821;44.800;10.326;2023-12-20T09:35:56;7.30;99.90
32348;DHT22;18821;44.800;10.326;2023-12-20T09:38:21;7.40;99.90
32348;DHT22;18821;44.800;10.326;2023-12-20T09:40:48;7.50;99.90
32348;DHT22;18821;44.800;10.326;2023-12-20T09:43:15;7.50;99.90
32348;DHT22;18821;44.800;10.326;2023-12-20T09:45:46;7.60;99.90
32348;DHT22;18821;44.800;10.326;2023-12-20T09:48:13;7.70;99.90
32348;DHT22;18821;44.800;10.326;2023-12-20T09:50:43;7.70;99.90
32348;DHT22;18821;44.800;10.326;2023-12-20T09:53:14;7.80;99.90
32348;DHT22;18821;44.800;10.326;2023-12-20T09:55:41;7.90;99.90
32348;DHT22;18821;44.800;10.326;2023-12-20T09:58:08;7.90;99.90
32348;DHT22;18821;44.800;10.326;2023-12-20T10:00:37;8.10;99.90
32348;DHT22;18821;44.800;10.326;2023-12-20T10:03:03;8.00;99.90
32348;DHT22;18821;44.800;10.326;2023-12-20T10:05:32;8.10;99.90
32348;DHT22;18821;44.800;10.326;2023-12-20T10:07:59;8.10;99.90
32348;DHT22;18821;44.800;10.326;2023-12-20T10:10:26;8.20;99.90
32348;DHT22;18821;44.800;10.326;2023-12-20T10:13:06;8.30;99.90
32348;DHT22;18821;44.800;10.326;2023-12-20T10:15:35;8.30;99.90
32348;DHT22;18821;44.800;10.326;2023-12-20T10:18:02;8.40;99.90
32348;DHT22;18821;44.800;10.326;2023-12-20T10:20:29;8.40;99.90
32348;DHT22;18821;44.800;10.326;2023-12-20T10:22:58;8.50;99.90
32348;DHT22;18821;44.800;10.326;2023-12-20T10:25:25;8.60;99.90
32348;DHT22;18821;44.800;10.326;2023-12-20T10:28:09;8.60;99.90
32348;DHT22;18821;44.800;10.326;2023-12-20T10:30:35;8.60;99.90
32348;DHT22;18821;44.800;10.326;2023-12-20T10:33:01;8.70;99.90
32348;DHT22;18821;44.800;10.326;2023-12-20T10:35:27;8.70;99.90
32348;DHT22;18821;44.800;10.326;2023-12-20T10:37:55;8.80;99.90
32348;DHT22;18821;44.800;10.326;2023-12-20T10:40:22;8.70;99.90
32348;DHT22;18821;44.800;10.326;2023-12-20T10:42:49;8.80;99.90
32348;DHT22;18821;44.800;10.326;2023-12-20T10:45:16;8.70;99.90
32348;DHT22;18821;44.800;10.326;2023-12-20T10:47:46;8.70;99.90
32348;DHT22;18821;44.800;10.326;2023-12-20T10:50:12;8.80;99.90
32348;DHT22;18821;44.800;10.326;2023-12-20T10:52:40;8.80;99.90
32348;DHT22;18821;44.800;10.326;2023-12-20T10:55:07;8.80;99.90
32348;DHT22;18821;44.800;10.326;2023-12-20T10:57:34;8.80;99.90
32348;DHT22;18821;44.800;10.326;2023-12-20T11:00:02;8.80;99.90
32348;DHT22;18821;44.800;10.326;2023-12-20T11:02:39;8.80;99.90
32348;DHT22;18821;44.800;10.326;2023-12-20T11:07:59;8.80;99.90
32348;DHT22;18821;44.800;10.326;2023-12-20T11:13:17;8.50;99.90
32348;DHT22;18821;44.800;10.326;2023-12-20T11:15:48;8.40;99.90
32348;DHT22;18821;44.800;10.326;2023-12-20T11:18:15;8.40;99.90
32348;DHT22;18821;44.800;10.326;2023-12-20T11:20:41;8.50;99.90
32348;DHT22;18821;44.800;10.326;2023-12-20T11:23:09;8.50;99.90
32348;DHT22;18821;44.800;10.326;2023-12-20T11:25:47;8.40;99.90
32348;DHT22;18821;44.800;10.326;2023-12-20T11:28:14;8.40;99.90
32348;DHT22;18821;44.800;10.326;2023-12-20T11:33:17;8.40;99.90
32348;DHT22;18821;44.800;10.326;2023-12-20T11:35:47;8.40;99.90
32348;DHT22;18821;44.800;10.326;2023-12-20T11:38:24;8.50;99.90
32348;DHT22;18821;44.800;10.326;2023-12-20T11:40:50;8.50;99.90
32348;DHT22;18821;44.800;10.326;2023-12-20T11:43:35;8.40;99.90
32348;DHT22;18821;44.800;10.326;2023-12-20T11:46:13;8.20;99.90
32348;DHT22;18821;44.800;10.326;2023-12-20T11:48:39;8.10;99.90
32348;DHT22;18821;44.800;10.326;2023-12-20T11:51:13;8.10;99.90
32348;DHT22;18821;44.800;10.326;2023-12-20T11:53:39;8.10;99.90
32348;DHT22;18821;44.800;10.326;2023-12-20T11:56:06;8.20;99.90
32348;DHT22;18821;44.800;10.326;2023-12-20T11:58:36;8.30;99.90
32348;DHT22;18821;44.800;10.326;2023-12-20T12:01:02;8.30;99.90
32348;DHT22;18821;44.800;10.326;2023-12-20T12:03:28;8.40;99.90
32348;DHT22;18821;44.800;10.326;2023-12-20T12:05:54;8.50;99.90
32348;DHT22;18821;44.800;10.326;2023-12-20T12:08:20;8.50;99.90
32348;DHT22;18821;44.800;10.326;2023-12-20T12:10:46;8.30;99.90
32348;DHT22;18821;44.800;10.326;2023-12-20T12:13:13;8.10;99.90
32348;DHT22;18821;44.800;10.326;2023-12-20T12:15:40;8.00;99.90
32348;DHT22;18821;44.800;10.326;2023-12-20T12:18:08;8.00;99.90
32348;DHT22;18821;44.800;10.326;2023-12-20T12:20:33;8.00;99.90
32348;DHT22;18821;44.800;10.326;2023-12-20T12:23:04;8.10;99.90
32348;DHT22;18821;44.800;10.326;2023-12-20T12:25:32;8.20;99.90
32348;DHT22;18821;44.800;10.326;2023-12-20T12:27:58;8.40;99.90
32348;DHT22;18821;44.800;10.326;2023-12-20T12:30:25;8.50;99.90
32348;DHT22;18821;44.800;10.326;2023-12-20T12:32:52;8.50;99.90
32348;DHT22;18821;44.800;10.326;2023-12-20T12:35:19;8.60;99.90
32348;DHT22;18821;44.800;10.326;2023-12-20T12:37:48;8.60;99.90
32348;DHT22;18821;44.800;10.326;2023-12-20T12:40:15;8.60;99.90
32348;DHT22;18821;44.800;10.326;2023-12-20T12:42:43;8.80;99.90
32348;DHT22;18821;44.800;10.326;2023-12-20T12:45:09;8.80;99.90
32348;DHT22;18821;44.800;10.326;2023-12-20T12:47:37;8.90;99.90
32348;DHT22;18821;44.800;10.326;2023-12-20T12:50:04;9.00;99.90
32348;DHT22;18821;44.800;10.326;2023-12-20T12:52:31;9.00;99.90
32348;DHT22;18821;44.800;10.326;2023-12-20T12:54:57;9.00;99.90
32348;DHT22;18821;44.800;10.326;2023-12-20T12:57:23;9.10;99.90
32348;DHT22;18821;44.800;10.326;2023-12-20T12:59:49;9.10;99.90
32348;DHT22;18821;44.800;10.326;2023-12-20T13:02:16;9.10;99.90
32348;DHT22;18821;44.800;10.326;2023-12-20T13:04:42;9.20;99.90
32348;DHT22;18821;44.800;10.326;2023-12-20T13:07:09;9.20;99.90
32348;DHT22;18821;44.800;10.326;2023-12-20T13:09:39;9.30;99.90
32348;DHT22;18821;44.800;10.326;2023-12-20T13:12:06;9.30;99.90
32348;DHT22;18821;44.800;10.326;2023-12-20T13:14:34;9.40;99.90
32348;DHT22;18821;44.800;10.326;2023-12-20T13:17:03;9.60;99.90
32348;DHT22;18821;44.800;10.326;2023-12-20T13:19:29;9.70;99.90
32348;DHT22;18821;44.800;10.326;2023-12-20T13:21:56;9.70;99.90
32348;DHT22;18821;44.800;10.326;2023-12-20T13:24:23;9.70;99.90
32348;DHT22;18821;44.800;10.326;2023-12-20T13:26:50;9.60;99.90
32348;DHT22;18821;44.800;10.326;2023-12-20T13:29:16;9.50;99.90
32348;DHT22;18821;44.800;10.326;2023-12-20T13:31:42;9.40;99.90
32348;DHT22;18821;44.800;10.326;2023-12-20T13:34:08;9.20;99.90
32348;DHT22;18821;44.800;10.326;2023-12-20T13:36:34;9.00;99.90
32348;DHT22;18821;44.800;10.326;2023-12-20T13:39:01;9.00;99.90
32348;DHT22;18821;44.800;10.326;2023-12-20T13:41:28;8.90;99.90
32348;DHT22;18821;44.800;10.326;2023-12-20T13:43:54;8.90;99.90
32348;DHT22;18821;44.800;10.326;2023-12-20T13:46:20;8.90;99.90
32348;DHT22;18821;44.800;10.326;2023-12-20T13:48:46;8.80;99.90
32348;DHT22;18821;44.800;10.326;2023-12-20T13:51:12;8.80;99.90
32348;DHT22;18821;44.800;10.326;2023-12-20T13:53:38;8.80;99.90
32348;DHT22;18821;44.800;10.326;2023-12-20T13:56:04;8.90;99.90
32348;DHT22;18821;44.800;10.326;2023-12-20T13:58:30;8.90;99.90
32348;DHT22;18821;44.800;10.326;2023-12-20T14:00:56;9.00;99.90
32348;DHT22;18821;44.800;10.326;2023-12-20T14:03:22;9.10;99.90
32348;DHT22;18821;44.800;10.326;2023-12-20T14:05:48;9.10;99.90
32348;DHT22;18821;44.800;10.326;2023-12-20T14:08:14;9.10;99.90
32348;DHT22;18821;44.800;10.326;2023-12-20T14:10:40;9.10;99.90
32348;DHT22;18821;44.800;10.326;2023-12-20T14:13:06;9.10;99.90
32348;DHT22;18821;44.800;10.326;2023-12-20T14:15:32;9.10;99.90
32348;DHT22;18821;44.800;10.326;2023-12-20T14:18:06;9.10;99.90
32348;DHT22;18821;44.800;10.326;2023-12-20T14:20:36;9.10;99.90
32348;DHT22;18821;44.800;10.326;2023-12-20T14:23:03;9.10;99.90
32348;DHT22;18821;44.800;10.326;2023-12-20T14:25:28;9.10;99.90
32348;DHT22;18821;44.800;10.326;2023-12-20T14:27:55;9.00;99.90
32348;DHT22;18821;44.800;10.326;2023-12-20T14:30:21;9.10;99.90
32348;DHT22;18821;44.800;10.326;2023-12-20T14:32:47;9.00;99.90
32348;DHT22;18821;44.800;10.326;2023-12-20T14:35:14;9.00;99.90
32348;DHT22;18821;44.800;10.326;2023-12-20T14:37:40;9.00;99.90
32348;DHT22;18821;44.800;10.326;2023-12-20T14:40:10;9.00;99.90
32348;DHT22;18821;44.800;10.326;2023-12-20T14:42:37;9.00;99.90
32348;DHT22;18821;44.800;10.326;2023-12-20T14:45:03;8.90;99.90
32348;DHT22;18821;44.800;10.326;2023-12-20T14:47:29;8.80;99.90
32348;DHT22;18821;44.800;10.326;2023-12-20T14:49:55;8.70;99.90
32348;DHT22;18821;44.800;10.326;2023-12-20T14:52:21;8.60;99.90
32348;DHT22;18821;44.800;10.326;2023-12-20T14:54:48;8.60;99.90
32348;DHT22;18821;44.800;10.326;2023-12-20T14:57:14;8.50;99.90
32348;DHT22;18821;44.800;10.326;2023-12-20T14:59:41;8.40;99.90
32348;DHT22;18821;44.800;10.326;2023-12-20T15:02:06;8.30;99.90
32348;DHT22;18821;44.800;10.326;2023-12-20T15:04:32;8.20;99.90
32348;DHT22;18821;44.800;10.326;2023-12-20T15:06:58;8.20;99.90
32348;DHT22;18821;44.800;10.326;2023-12-20T15:09:26;8.10;99.90
32348;DHT22;18821;44.800;10.326;2023-12-20T15:11:52;8.00;99.90
32348;DHT22;18821;44.800;10.326;2023-12-20T15:14:18;8.00;99.90
32348;DHT22;18821;44.800;10.326;2023-12-20T15:16:46;7.90;99.90
32348;DHT22;18821;44.800;10.326;2023-12-20T15:19:13;7.90;99.90
32348;DHT22;18821;44.800;10.326;2023-12-20T15:21:39;7.80;99.90
32348;DHT22;18821;44.800;10.326;2023-12-20T15:24:11;7.80;99.90
32348;DHT22;18821;44.800;10.326;2023-12-20T15:26:43;7.80;99.90
32348;DHT22;18821;44.800;10.326;2023-12-20T15:29:10;7.70;99.90
32348;DHT22;18821;44.800;10.326;2023-12-20T15:31:47;7.70;99.90
32348;DHT22;18821;44.800;10.326;2023-12-20T15:34:14;7.70;99.90